< Cyclone 200902 2009 Season Cyclone 200906 >
Cyclone 200903 (Billy)
General InformationDetailed Track InformationTrack Information on Google MapsList of All Images || ResourceGoogle EarthGE AnimationAtom FeedGeoJSON
Detalied Best Track Wind (Time Zone = UTC)
Year Month Day Hour Lat. Long. Wind (kt) Gust (kt) Direc. of Major Storm Axis Radius of Major Storm Axis (nm) Radius of Minor Storm Axis (nm) Direc. of Major Gale Axis Radius of Major Gale Axis (nm) Radius of Minor Gale Axis (nm) Image
2008 12 15 00 -10.1 128.7 10 45 symmetric - - symmetric - - Image
2008 12 15 06 -10.2 128.6 10 45 symmetric - - symmetric - - Image
2008 12 15 12 -10.2 128.4 15 45 symmetric - - symmetric - - Image
2008 12 15 18 -10.3 128.1 15 45 symmetric - - symmetric - - Image
2008 12 16 00 -10.5 127.7 15 45 symmetric - - symmetric - - Image
2008 12 16 06 -10.9 127.5 20 45 symmetric - - symmetric - - Image
2008 12 16 12 -11.2 127.3 20 45 symmetric - - symmetric - - Image
2008 12 16 18 -11.7 127.3 20 45 symmetric - - symmetric - - Image
2008 12 17 00 -12.2 127.2 20 45 symmetric - - symmetric - - Image
2008 12 17 06 -12.6 127.5 20 45 symmetric - - symmetric - - Image
2008 12 17 12 -12.7 127.5 20 45 symmetric - - symmetric - - Image
2008 12 17 18 -13.1 127.8 25 45 symmetric - - symmetric - - Image
2008 12 18 00 -13.7 128.3 25 45 symmetric - - symmetric - - Image
2008 12 18 03 -13.9 128.5 25 45 symmetric - - symmetric - - Image
2008 12 18 06 -14.0 128.6 30 45 symmetric - - symmetric - - Image
2008 12 18 12 -14.4 128.8 40 55 symmetric - - symmetric - - Image
2008 12 18 15 -14.5 128.8 40 55 symmetric - - symmetric - - Image
2008 12 18 18 -14.5 128.8 40 55 symmetric - - symmetric - - Image
2008 12 18 21 -14.4 128.8 45 65 symmetric - - symmetric - - Image
2008 12 19 00 -14.3 128.8 45 65 symmetric - - symmetric - - Image
2008 12 19 03 -14.4 128.6 45 65 symmetric - - symmetric - - Image
2008 12 19 06 -14.4 128.7 50 70 symmetric - - symmetric - - Image
2008 12 19 09 -14.4 128.7 50 70 symmetric - - symmetric - - Image
2008 12 19 12 -14.5 128.6 50 70 symmetric - - symmetric - - Image
2008 12 19 15 -14.7 128.4 50 70 symmetric - - symmetric - - Image
2008 12 19 18 -14.8 128.1 50 70 symmetric - - symmetric - - Image
2008 12 19 21 -14.8 128.0 50 70 symmetric - - symmetric - - Image
2008 12 20 00 -14.8 127.9 35 50 symmetric - - symmetric - - Image
2008 12 20 06 -15.0 127.4 30 45 symmetric - - symmetric - - Image
2008 12 20 12 -15.1 126.9 30 45 symmetric - - symmetric - - Image
2008 12 20 18 -15.0 126.3 30 45 symmetric - - symmetric - - Image
2008 12 21 00 -15.0 126.0 30 45 symmetric - - symmetric - - Image
2008 12 21 06 -15.0 125.8 30 45 symmetric - - symmetric - - Image
2008 12 21 12 -15.2 125.5 30 45 symmetric - - symmetric - - Image
2008 12 21 18 -15.3 125.2 30 45 symmetric - - symmetric - - Image
2008 12 22 00 -15.5 124.7 35 50 symmetric - - symmetric - - Image
2008 12 22 06 -15.8 124.0 35 50 symmetric - - symmetric - - Image
2008 12 22 12 -16.2 123.4 35 50 symmetric - - symmetric - - Image
2008 12 22 18 -16.5 122.8 35 50 symmetric - - symmetric - - Image
2008 12 23 00 -17.1 122.2 45 60 symmetric - - symmetric - - Image
2008 12 23 06 -17.5 121.2 50 70 symmetric - - symmetric - - Image
2008 12 23 12 -17.7 120.8 50 70 symmetric - - symmetric - - Image
2008 12 23 18 -17.8 120.3 60 85 symmetric - - symmetric - - Image
2008 12 24 00 -17.7 119.9 65 90 symmetric - - symmetric - - Image
2008 12 24 06 -17.7 119.2 80 110 symmetric - - symmetric - - Image
2008 12 24 12 -17.7 118.6 90 125 symmetric - - symmetric - - Image
2008 12 24 18 -17.5 117.9 95 135 symmetric - - symmetric - - Image
2008 12 25 00 -17.4 117.3 90 125 symmetric - - symmetric - - Image
2008 12 25 06 -17.2 116.6 90 125 symmetric - - symmetric - - Image
2008 12 25 12 -16.8 116.0 90 125 symmetric - - symmetric - - Image
2008 12 25 18 -16.2 115.3 85 120 symmetric - - symmetric - - Image
2008 12 26 00 -16.0 114.8 80 110 symmetric - - symmetric - - Image
2008 12 26 06 -15.7 114.3 80 110 symmetric - - symmetric - - Image
2008 12 26 12 -15.6 113.9 70 100 symmetric - - symmetric - - Image
2008 12 26 18 -15.3 113.6 60 85 symmetric - - symmetric - - Image
2008 12 27 00 -15.2 113.4 55 75 symmetric - - symmetric - - Image
2008 12 27 06 -15.1 112.9 50 70 symmetric - - symmetric - - Image
2008 12 27 12 -15.0 112.8 50 70 symmetric - - symmetric - - Image
2008 12 27 18 -14.9 112.9 40 55 symmetric - - symmetric - - Image
2008 12 28 00 -14.8 113.0 30 45 symmetric - - symmetric - - Image
2008 12 28 06 -15.4 112.7 30 45 symmetric - - symmetric - - Image
2008 12 28 12 -16.0 112.6 25 45 symmetric - - symmetric - - Image
2008 12 28 18 -16.3 112.0 25 45 symmetric - - symmetric - - Image
2008 12 29 00 -16.5 111.4 25 45 symmetric - - symmetric - - Image
2008 12 29 06 -16.6 110.6 25 45 symmetric - - symmetric - - Image
2008 12 29 12 -16.8 109.8 25 45 symmetric - - symmetric - - Image
2008 12 29 18 -16.8 108.7 25 45 symmetric - - symmetric - - Image
2008 12 30 00 -16.8 108.2 25 45 symmetric - - symmetric - - Image
2008 12 30 06 -16.7 107.7 25 45 symmetric - - symmetric - - Image
2008 12 30 12 -16.5 107.4 25 45 symmetric - - symmetric - - Image
2008 12 30 18 -16.4 106.7 20 45 symmetric - - symmetric - - Image
2008 12 31 00 -16.4 106.0 20 45 symmetric - - symmetric - - Image
2008 12 31 06 -15.8 105.2 20 45 symmetric - - symmetric - - Image
2008 12 31 12 -15.8 104.1 20 45 symmetric - - symmetric - - Image
2008 12 31 18 -15.3 103.2 15 45 symmetric - - symmetric - - Image
2009 1 1 00 -14.9 102.3 15 45 symmetric - - symmetric - - Image
2009 1 1 06 -14.9 101.5 15 45 symmetric - - symmetric - - Image
2009 1 1 12 -14.8 100.6 15 45 symmetric - - symmetric - - Image
2009 1 1 18 -14.5 99.3 15 45 symmetric - - symmetric - - Image
2009 1 2 00 -14.2 98.3 15 45 symmetric - - symmetric - - Image
2009 1 2 06 -13.8 97.1 15 45 symmetric - - symmetric - - Image
2009 1 2 12 -13.6 96.0 15 45 symmetric - - symmetric - - Image
2009 1 2 18 -13.4 94.6 15 45 symmetric - - symmetric - - Image
2009 1 3 00 -13.1 93.3 15 45 symmetric - - symmetric - - Image
2009 1 3 06 -12.9 92.0 15 45 symmetric - - symmetric - - Image
2009 1 3 12 -12.6 91.3 15 45 symmetric - - symmetric - - Image
2009 1 3 18 -12.5 90.2 15 45 symmetric - - symmetric - - Image
< Cyclone 200902 2009 Season Cyclone 200906 >

Help